createdAt,value
2018-12-22T00:00:12.587Z,75.10
2018-12-22T00:00:43.691Z,77.40
2018-12-22T00:01:14.847Z,89.60
2018-12-22T00:01:45.962Z,73.47
2018-12-22T00:03:06.853Z,73.75
2018-12-22T00:03:37.959Z,78.85
2018-12-22T00:04:09.064Z,73.50
2018-12-22T00:04:40.178Z,71.65
2018-12-22T00:05:11.353Z,74.92
2018-12-22T00:05:42.465Z,74.58
2018-12-22T00:06:13.589Z,68.35
2018-12-22T00:06:44.732Z,65.05
2018-12-22T00:07:15.840Z,68.42
2018-12-22T00:07:46.953Z,71.33
2018-12-22T00:08:18.064Z,70.00
2018-12-22T00:08:49.213Z,69.50
2018-12-22T00:09:20.322Z,65.50
2018-12-22T00:09:51.683Z,70.45
2018-12-22T00:10:22.832Z,67.60
2018-12-22T00:10:53.948Z,67.05
2018-12-22T00:11:25.055Z,66.87
2018-12-22T00:11:56.166Z,68.40
2018-12-22T00:12:27.265Z,69.95
2018-12-22T00:12:58.381Z,69.00
2018-12-22T00:13:29.547Z,70.12
2018-12-22T00:14:00.673Z,68.57
2018-12-22T00:14:31.780Z,64.35
2018-12-22T00:15:02.895Z,66.00
2018-12-22T00:15:34.012Z,67.65
2018-12-22T00:16:05.130Z,69.47
2018-12-22T00:16:36.258Z,66.57
2018-12-22T00:17:07.380Z,60.90
2018-12-22T00:17:38.505Z,61.92
2018-12-22T00:18:09.616Z,65.40
2018-12-22T00:18:40.787Z,61.77
2018-12-22T00:19:11.913Z,62.38
2018-12-22T00:19:43.014Z,60.98
2018-12-22T00:20:14.134Z,62.00
2018-12-22T00:20:45.263Z,65.78
2018-12-22T00:21:16.377Z,67.55
2018-12-22T00:21:47.490Z,67.78
2018-12-22T00:22:18.639Z,62.98
2018-12-22T00:22:49.773Z,60.12
2018-12-22T00:23:20.917Z,62.38
2018-12-22T00:23:52.048Z,61.05
2018-12-22T00:24:23.156Z,61.23
2018-12-22T00:24:54.260Z,56.13
2018-12-22T00:25:25.382Z,56.88
2018-12-22T00:25:56.537Z,56.68
2018-12-22T00:26:27.747Z,57.62
2018-12-22T00:26:58.880Z,59.42
2018-12-22T00:27:30.010Z,57.95
2018-12-22T00:28:01.212Z,57.08
2018-12-22T00:28:32.323Z,59.93
2018-12-22T00:29:03.448Z,60.55
2018-12-22T00:29:34.578Z,61.13
2018-12-22T00:30:05.712Z,58.87
2018-12-22T00:30:36.836Z,60.40
2018-12-22T00:31:07.963Z,58.13
2018-12-22T00:31:39.083Z,61.55
2018-12-22T00:32:10.196Z,61.00
2018-12-22T00:32:41.312Z,61.18
2018-12-22T00:33:12.473Z,60.25
2018-12-22T00:33:43.618Z,66.00
2018-12-22T00:34:14.734Z,63.42
2018-12-22T00:34:45.889Z,60.40
2018-12-22T00:35:17.002Z,63.58
2018-12-22T00:35:48.105Z,63.15
2018-12-22T00:36:19.249Z,59.90
2018-12-22T00:36:50.355Z,62.13
2018-12-22T00:37:21.475Z,62.93
2018-12-22T00:37:52.601Z,76.95
2018-12-22T00:38:23.705Z,81.72
2018-12-22T00:38:55.456Z,77.10
2018-12-22T00:39:26.637Z,76.25
2018-12-22T00:39:57.889Z,63.52
2018-12-22T00:40:29.007Z,65.20
2018-12-22T00:41:00.128Z,61.55
2018-12-22T00:41:31.278Z,61.28
2018-12-22T00:42:02.387Z,61.75
2018-12-22T00:42:33.524Z,65.60
2018-12-22T00:43:04.647Z,64.30
2018-12-22T00:43:35.756Z,61.88
2018-12-22T00:44:06.869Z,64.32
2018-12-22T00:44:37.977Z,68.30
2018-12-22T00:45:09.138Z,62.45
2018-12-22T00:45:40.249Z,75.83
2018-12-22T00:46:11.370Z,66.92
2018-12-22T00:46:42.480Z,66.53
2018-12-22T00:47:13.598Z,64.87
2018-12-22T00:47:44.695Z,65.57
2018-12-22T00:48:15.818Z,67.50
2018-12-22T00:48:46.924Z,65.83
2018-12-22T00:49:18.031Z,59.25
2018-12-22T00:49:49.564Z,59.48
2018-12-22T00:50:20.704Z,59.63
2018-12-22T00:50:51.861Z,59.38
2018-12-22T00:51:23.093Z,54.10
2018-12-22T00:51:54.203Z,58.52
2018-12-22T00:52:25.315Z,55.43
2018-12-22T00:52:56.429Z,55.50
2018-12-22T00:53:27.540Z,55.52
2018-12-22T00:53:58.653Z,58.58
2018-12-22T00:54:29.764Z,58.28
2018-12-22T00:55:00.882Z,56.60
2018-12-22T00:55:31.991Z,53.95
2018-12-22T00:56:03.137Z,53.85
2018-12-22T00:56:34.251Z,53.17
2018-12-22T00:57:05.362Z,57.35
2018-12-22T00:57:36.472Z,52.23
2018-12-22T00:58:07.656Z,53.30
2018-12-22T00:58:38.773Z,56.40
2018-12-22T00:59:09.880Z,55.50
2018-12-22T00:59:40.991Z,59.88
2018-12-22T01:00:13.776Z,58.50
2018-12-22T01:00:45.048Z,53.80
2018-12-22T01:01:16.200Z,53.25
2018-12-22T01:01:47.327Z,52.98
2018-12-22T01:02:18.474Z,55.15
2018-12-22T01:02:49.616Z,53.42
2018-12-22T01:03:20.736Z,54.23
2018-12-22T01:03:51.844Z,58.42
2018-12-22T01:04:22.959Z,56.77
2018-12-22T01:04:54.073Z,55.73
2018-12-22T01:05:25.191Z,55.03
2018-12-22T01:05:56.312Z,53.75
2018-12-22T01:06:27.423Z,56.02
2018-12-22T01:06:58.573Z,54.88
2018-12-22T01:07:29.682Z,53.05
2018-12-22T01:08:00.798Z,62.43
2018-12-22T01:08:31.913Z,61.20
2018-12-22T01:09:03.023Z,58.65
2018-12-22T01:09:34.140Z,59.30
2018-12-22T01:10:05.300Z,62.10
2018-12-22T01:10:36.423Z,62.33
2018-12-22T01:11:07.578Z,69.27
2018-12-22T01:11:38.698Z,60.38
2018-12-22T01:12:09.808Z,65.92
2018-12-22T01:12:40.961Z,66.90
2018-12-22T01:13:12.068Z,57.93
2018-12-22T01:13:43.188Z,67.40
2018-12-22T01:14:14.309Z,65.28
2018-12-22T01:14:46.240Z,59.23
2018-12-22T01:15:17.351Z,58.05
2018-12-22T01:15:48.460Z,59.98
2018-12-22T01:16:19.610Z,68.02
2018-12-22T01:16:50.725Z,58.05
2018-12-22T01:17:21.842Z,60.43
2018-12-22T01:17:52.949Z,61.13
2018-12-22T01:18:24.103Z,61.13
2018-12-22T01:18:55.210Z,63.85
2018-12-22T01:19:26.326Z,64.42
2018-12-22T01:19:57.436Z,85.35
2018-12-22T01:20:28.540Z,75.85
2018-12-22T01:20:59.653Z,65.65
2018-12-22T01:21:30.767Z,62.15
2018-12-22T01:22:01.885Z,64.27
2018-12-22T01:22:32.987Z,65.97
2018-12-22T01:23:04.151Z,66.17
2018-12-22T01:23:35.305Z,67.22
2018-12-22T01:24:06.416Z,60.58
2018-12-22T01:24:37.524Z,57.35
2018-12-22T01:25:08.624Z,61.65
2018-12-22T01:25:39.742Z,58.13
2018-12-22T01:26:10.845Z,60.05
2018-12-22T01:26:42.041Z,59.77
2018-12-22T01:27:13.149Z,61.48
2018-12-22T01:27:44.282Z,61.20
2018-12-22T01:28:15.439Z,59.15
2018-12-22T01:28:46.548Z,60.75
2018-12-22T01:29:17.661Z,62.35
2018-12-22T01:29:48.788Z,59.67
2018-12-22T01:30:19.900Z,63.60
2018-12-22T01:30:51.012Z,58.65
2018-12-22T01:31:22.158Z,59.63
2018-12-22T01:31:53.272Z,58.40
2018-12-22T01:32:24.386Z,59.53
2018-12-22T01:32:55.501Z,59.33
2018-12-22T01:33:26.661Z,57.48
2018-12-22T01:33:57.773Z,58.35
2018-12-22T01:34:28.958Z,56.55
2018-12-22T01:35:00.185Z,54.98
2018-12-22T01:35:31.295Z,55.50
2018-12-22T01:36:02.410Z,57.90
2018-12-22T01:36:34.153Z,56.88
2018-12-22T01:37:05.301Z,56.77
2018-12-22T01:37:36.420Z,55.88
2018-12-22T01:38:07.529Z,55.83
2018-12-22T01:38:38.649Z,55.28
2018-12-22T01:39:09.752Z,56.60
2018-12-22T01:39:40.852Z,59.50
2018-12-22T01:40:11.973Z,56.10
2018-12-22T01:40:43.090Z,54.90
2018-12-22T01:41:14.212Z,54.05
2018-12-22T01:41:45.354Z,52.78
2018-12-22T01:42:16.513Z,53.55
2018-12-22T01:42:47.630Z,53.68
2018-12-22T01:43:18.739Z,54.93
2018-12-22T01:43:49.845Z,56.95
2018-12-22T01:44:20.987Z,55.33
2018-12-22T01:44:52.121Z,56.18
2018-12-22T01:45:23.247Z,56.00
2018-12-22T01:45:54.360Z,55.95
2018-12-22T01:46:25.493Z,53.95
2018-12-22T01:46:56.600Z,55.78
2018-12-22T01:47:27.733Z,53.02
2018-12-22T01:47:58.837Z,51.90
2018-12-22T01:48:29.957Z,55.40
2018-12-22T01:49:01.109Z,54.77
2018-12-22T01:49:32.212Z,52.73
2018-12-22T01:50:03.320Z,54.25
2018-12-22T01:50:34.433Z,54.53
2018-12-22T01:51:05.540Z,53.17
2018-12-22T01:51:36.655Z,55.38
2018-12-22T01:52:07.767Z,53.13
2018-12-22T01:52:38.888Z,55.75
2018-12-22T01:53:10.004Z,53.75
2018-12-22T01:53:41.156Z,55.45
2018-12-22T01:54:12.320Z,56.50
2018-12-22T01:54:43.426Z,59.50
2018-12-22T01:55:14.538Z,54.53
2018-12-22T01:55:45.648Z,62.25
2018-12-22T01:56:16.757Z,54.30
2018-12-22T01:56:47.873Z,52.98
2018-12-22T01:57:19.023Z,61.77
2018-12-22T01:57:50.132Z,60.43
2018-12-22T01:58:21.247Z,57.30
2018-12-22T01:58:52.369Z,58.10
2018-12-22T01:59:23.485Z,53.55
2018-12-22T01:59:54.632Z,55.12
2018-12-22T02:00:25.748Z,55.08
2018-12-22T02:00:56.872Z,55.10
2018-12-22T02:01:27.980Z,58.40
2018-12-22T02:01:59.127Z,57.05
2018-12-22T02:02:30.245Z,57.08
2018-12-22T02:03:01.409Z,58.60
2018-12-22T02:03:32.528Z,57.10
2018-12-22T02:04:03.655Z,55.98
2018-12-22T02:04:34.803Z,54.33
2018-12-22T02:05:05.910Z,56.08
2018-12-22T02:05:37.025Z,61.40
2018-12-22T02:06:08.147Z,57.33
2018-12-22T02:06:39.260Z,54.23
2018-12-22T02:07:10.379Z,58.02
2018-12-22T02:07:41.489Z,59.67
2018-12-22T02:08:12.596Z,54.35
2018-12-22T02:08:43.752Z,62.15
2018-12-22T02:09:14.855Z,61.13
2018-12-22T02:09:46.012Z,54.73
2018-12-22T02:10:17.121Z,54.58
2018-12-22T02:10:48.244Z,56.60
2018-12-22T02:11:19.348Z,58.08
2018-12-22T02:11:50.477Z,60.80
2018-12-22T02:12:21.590Z,62.95
2018-12-22T02:12:52.732Z,54.75
2018-12-22T02:13:23.849Z,54.75
2018-12-22T02:13:54.996Z,54.18
2018-12-22T02:14:26.127Z,60.30
2018-12-22T02:14:57.258Z,55.15
2018-12-22T02:15:28.368Z,53.50
2018-12-22T02:15:59.494Z,55.55
2018-12-22T02:16:30.617Z,59.42
2018-12-22T02:17:01.736Z,57.15
2018-12-22T02:17:32.835Z,56.70
2018-12-22T02:18:03.965Z,57.88
2018-12-22T02:18:35.129Z,59.08
2018-12-22T02:19:06.253Z,59.30
2018-12-22T02:19:37.356Z,61.33
2018-12-22T02:20:08.475Z,60.43
2018-12-22T02:20:39.604Z,66.90
2018-12-22T02:21:10.725Z,59.45
2018-12-22T02:21:41.845Z,61.65
2018-12-22T02:22:12.968Z,58.58
2018-12-22T02:22:44.080Z,57.10
2018-12-22T02:23:15.188Z,61.42
2018-12-22T02:23:46.340Z,61.42
2018-12-22T02:24:17.447Z,59.85
2018-12-22T02:24:48.559Z,58.02
2018-12-22T02:25:19.676Z,62.67
2018-12-22T02:25:50.785Z,56.58
2018-12-22T02:26:21.892Z,64.25
2018-12-22T02:26:53.013Z,58.23
2018-12-22T02:27:24.204Z,57.83
2018-12-22T02:27:55.328Z,56.08
2018-12-22T02:28:26.457Z,57.50
2018-12-22T02:28:57.567Z,56.73
2018-12-22T02:29:28.724Z,68.28
2018-12-22T02:30:00.733Z,76.15
2018-12-22T02:30:31.849Z,67.58
2018-12-22T02:31:02.983Z,76.82
2018-12-22T02:31:34.137Z,61.68
2018-12-22T02:32:05.243Z,65.40
2018-12-22T02:32:36.346Z,66.65
2018-12-22T02:33:07.457Z,67.97
2018-12-22T02:33:38.573Z,59.77
2018-12-22T02:34:09.726Z,67.20
2018-12-22T02:34:40.836Z,66.42
2018-12-22T02:35:11.954Z,65.35
2018-12-22T02:35:43.069Z,66.55
2018-12-22T02:36:14.212Z,62.98
2018-12-22T02:36:45.322Z,69.53
2018-12-22T02:37:16.438Z,59.95
2018-12-22T02:37:47.551Z,65.75
2018-12-22T02:38:18.654Z,71.40
2018-12-22T02:38:49.787Z,69.58
2018-12-22T02:39:20.949Z,58.63
2018-12-22T02:39:52.052Z,60.75
2018-12-22T02:40:23.160Z,61.53
2018-12-22T02:40:54.268Z,67.95
2018-12-22T02:41:25.386Z,56.53
2018-12-22T02:41:56.500Z,63.75
2018-12-22T02:42:27.616Z,59.03
2018-12-22T02:42:58.781Z,62.05
2018-12-22T02:43:29.907Z,55.95
2018-12-22T02:44:01.072Z,58.33
2018-12-22T02:44:32.236Z,56.77
2018-12-22T02:45:03.348Z,57.50
2018-12-22T02:45:34.460Z,55.05
2018-12-22T02:46:05.577Z,59.65
2018-12-22T02:46:36.685Z,61.63
2018-12-22T02:47:07.783Z,58.55
2018-12-22T02:47:38.901Z,58.10
2018-12-22T02:48:10.012Z,58.00
2018-12-22T02:48:41.133Z,58.20
2018-12-22T02:49:12.280Z,56.18
2018-12-22T02:49:43.546Z,57.75
2018-12-22T02:50:14.661Z,57.15
2018-12-22T02:50:45.769Z,54.03
2018-12-22T02:51:16.880Z,59.35
2018-12-22T02:51:48.299Z,55.88
2018-12-22T02:52:19.396Z,59.85
2018-12-22T02:52:50.499Z,56.37
2018-12-22T02:53:21.648Z,54.45
2018-12-22T02:53:52.808Z,60.92
2018-12-22T02:54:23.927Z,58.90
2018-12-22T02:54:55.033Z,54.65
2018-12-22T02:55:27.144Z,53.75
2018-12-22T02:55:59.424Z,52.43
2018-12-22T02:56:30.538Z,50.25
2018-12-22T02:57:02.417Z,51.92
2018-12-22T02:57:33.544Z,53.13
2018-12-22T02:58:04.698Z,59.38
2018-12-22T02:58:35.807Z,53.83
2018-12-22T02:59:06.923Z,53.90
2018-12-22T02:59:38.046Z,53.00
2018-12-22T03:00:09.165Z,58.98
2018-12-22T03:00:40.312Z,61.35
2018-12-22T03:01:11.428Z,53.45
2018-12-22T03:01:42.548Z,54.33
2018-12-22T03:02:13.660Z,57.27
2018-12-22T03:02:44.777Z,56.35
2018-12-22T03:03:15.934Z,52.03
2018-12-22T03:03:47.049Z,51.73
2018-12-22T03:04:18.158Z,51.50
2018-12-22T03:04:49.264Z,53.45
2018-12-22T03:05:20.379Z,52.67
2018-12-22T03:05:51.484Z,53.80
2018-12-22T03:06:22.592Z,56.88
2018-12-22T03:06:53.716Z,62.55
2018-12-22T03:07:24.840Z,55.43
2018-12-22T03:07:55.969Z,56.65
2018-12-22T03:08:27.173Z,59.65
2018-12-22T03:08:58.290Z,53.50
2018-12-22T03:09:29.396Z,51.35
2018-12-22T03:10:00.548Z,50.05
2018-12-22T03:10:31.653Z,49.48
2018-12-22T03:11:02.773Z,55.12
2018-12-22T03:11:33.886Z,53.20
2018-12-22T03:12:05.005Z,55.55
2018-12-22T03:12:36.108Z,56.20
2018-12-22T03:13:07.228Z,52.08
2018-12-22T03:13:38.368Z,53.00
2018-12-22T03:14:09.493Z,55.25
2018-12-22T03:14:40.606Z,56.13
2018-12-22T03:15:11.717Z,64.70
2018-12-22T03:15:42.850Z,77.10
2018-12-22T03:16:13.968Z,59.18
2018-12-22T03:16:45.082Z,61.42
2018-12-22T03:17:16.211Z,57.62
2018-12-22T03:17:47.360Z,57.15
2018-12-22T03:18:18.489Z,67.42
2018-12-22T03:18:49.600Z,54.53
2018-12-22T03:19:20.704Z,55.33
2018-12-22T03:19:51.820Z,50.70
2018-12-22T03:20:22.923Z,54.30
2018-12-22T03:20:54.037Z,51.30
2018-12-22T03:21:25.134Z,51.33
2018-12-22T03:21:57.328Z,52.45
2018-12-22T03:22:28.562Z,52.60
2018-12-22T03:22:59.705Z,52.15
2018-12-22T03:23:30.908Z,51.80
2018-12-22T03:24:02.557Z,53.33
2018-12-22T03:24:33.709Z,54.30
2018-12-22T03:25:04.922Z,52.48
2018-12-22T03:25:36.040Z,51.60
2018-12-22T03:26:07.188Z,54.33
2018-12-22T03:26:38.321Z,57.35
2018-12-22T03:27:09.466Z,54.55
2018-12-22T03:27:40.572Z,52.58
2018-12-22T03:28:11.717Z,52.95
2018-12-22T03:28:42.838Z,53.05
2018-12-22T03:29:15.877Z,52.27
2018-12-22T03:29:47.140Z,55.03
2018-12-22T03:30:18.394Z,51.10
2018-12-22T03:30:49.523Z,53.95
2018-12-22T03:31:20.660Z,51.95
2018-12-22T03:31:51.807Z,54.27
2018-12-22T03:32:22.947Z,52.03
2018-12-22T03:32:54.093Z,51.10
2018-12-22T03:33:25.269Z,55.63
2018-12-22T03:33:56.380Z,53.80
2018-12-22T03:34:27.493Z,53.20
2018-12-22T03:34:58.601Z,52.73
2018-12-22T03:35:29.719Z,53.10
2018-12-22T03:36:02.009Z,50.80
2018-12-22T03:36:33.128Z,52.33
2018-12-22T03:37:04.280Z,52.85
2018-12-22T03:37:35.388Z,53.33
2018-12-22T03:38:06.498Z,52.17
2018-12-22T03:38:37.631Z,53.00
2018-12-22T03:39:08.801Z,53.33
2018-12-22T03:39:39.906Z,54.18
2018-12-22T03:40:11.037Z,51.50
2018-12-22T03:40:42.188Z,50.05
2018-12-22T03:41:13.312Z,51.13
2018-12-22T03:41:45.047Z,57.53
2018-12-22T03:42:16.719Z,51.98
2018-12-22T03:42:49.885Z,50.08
2018-12-22T03:43:21.245Z,52.55
2018-12-22T03:43:52.365Z,52.40
2018-12-22T03:44:23.482Z,50.83
2018-12-22T03:44:54.602Z,50.17
2018-12-22T03:45:25.725Z,50.15
2018-12-22T03:45:56.900Z,55.63
2018-12-22T03:46:28.004Z,58.80
2018-12-22T03:46:59.124Z,51.18
2018-12-22T03:47:30.227Z,53.42
2018-12-22T03:48:01.340Z,54.45
2018-12-22T03:48:32.452Z,52.93
2018-12-22T03:49:03.583Z,51.20
2018-12-22T03:49:34.684Z,53.15
2018-12-22T03:50:05.786Z,58.42
2018-12-22T03:50:36.910Z,52.33
2018-12-22T03:51:08.053Z,52.15
2018-12-22T03:51:39.157Z,54.90
2018-12-22T03:52:10.309Z,51.33
2018-12-22T03:52:41.431Z,49.88
2018-12-22T03:53:12.559Z,51.23
2018-12-22T03:53:43.668Z,50.67
2018-12-22T03:54:15.466Z,52.35
2018-12-22T03:54:46.601Z,58.02
2018-12-22T03:55:17.718Z,50.63
2018-12-22T03:55:48.838Z,52.25
2018-12-22T03:56:19.989Z,53.38
2018-12-22T03:56:51.106Z,51.10
2018-12-22T03:57:22.215Z,49.00
2018-12-22T03:57:53.372Z,50.08
2018-12-22T03:58:24.501Z,52.93
2018-12-22T03:58:55.617Z,50.75
2018-12-22T03:59:26.722Z,51.28
2018-12-22T03:59:57.826Z,51.85
2018-12-22T04:00:28.945Z,52.50
2018-12-22T04:01:00.071Z,51.63
2018-12-22T04:01:31.255Z,51.85
2018-12-22T04:02:02.367Z,50.85
2018-12-22T04:02:33.492Z,51.73
2018-12-22T04:03:04.608Z,54.20
2018-12-22T04:03:35.725Z,55.15
2018-12-22T04:04:06.838Z,52.67
2018-12-22T04:04:37.958Z,56.02
2018-12-22T04:05:09.066Z,51.90
2018-12-22T04:05:40.183Z,51.63
2018-12-22T04:06:11.320Z,51.35
2018-12-22T04:06:42.497Z,50.40
2018-12-22T04:07:13.610Z,53.45
2018-12-22T04:07:44.800Z,51.15
2018-12-22T04:08:15.907Z,51.13
2018-12-22T04:08:47.024Z,52.33
2018-12-22T04:09:18.191Z,52.73
2018-12-22T04:09:49.314Z,49.80
2018-12-22T04:10:20.447Z,50.55
2018-12-22T04:10:51.562Z,50.30
2018-12-22T04:11:22.686Z,51.50
2018-12-22T04:11:53.807Z,51.53
2018-12-22T04:12:24.922Z,49.95
2018-12-22T04:12:56.082Z,51.92
2018-12-22T04:13:27.202Z,50.00
2018-12-22T04:13:58.350Z,51.18
2018-12-22T04:14:29.462Z,53.48
2018-12-22T04:15:00.585Z,52.50
2018-12-22T04:15:31.708Z,56.98
2018-12-22T04:16:02.839Z,56.13
2018-12-22T04:16:33.943Z,49.60
2018-12-22T04:17:05.049Z,47.73
2018-12-22T04:17:36.207Z,52.13
2018-12-22T04:18:07.316Z,51.18
2018-12-22T04:18:38.469Z,53.02
2018-12-22T04:19:09.601Z,56.98
2018-12-22T04:19:40.710Z,54.95
2018-12-22T04:20:11.818Z,51.37
2018-12-22T04:20:42.926Z,50.43
2018-12-22T04:21:14.043Z,53.80
2018-12-22T04:21:45.165Z,52.23
2018-12-22T04:22:16.436Z,52.85
2018-12-22T04:22:47.593Z,51.77
2018-12-22T04:23:18.767Z,49.15
2018-12-22T04:23:49.877Z,56.53
2018-12-22T04:24:20.980Z,43.68
2018-12-22T04:24:52.100Z,48.85
2018-12-22T04:25:23.210Z,48.83
2018-12-22T04:25:54.429Z,51.08
2018-12-22T04:26:25.566Z,64.87
2018-12-22T04:26:56.726Z,62.85
2018-12-22T04:27:27.859Z,49.83
2018-12-22T04:27:58.978Z,48.33
2018-12-22T04:28:30.120Z,52.33
2018-12-22T04:29:01.239Z,58.52
2018-12-22T04:29:34.098Z,54.93
2018-12-22T04:30:05.607Z,54.08
2018-12-22T04:30:36.728Z,53.68
2018-12-22T04:31:07.849Z,60.08
2018-12-22T04:31:38.967Z,60.55
2018-12-22T04:32:10.089Z,61.90
2018-12-22T04:32:41.207Z,64.45
2018-12-22T04:33:13.155Z,53.08
2018-12-22T04:33:45.132Z,58.40
2018-12-22T04:34:16.399Z,53.05
2018-12-22T04:34:47.518Z,55.08
2018-12-22T04:35:18.626Z,61.53
2018-12-22T04:35:49.743Z,61.45
2018-12-22T04:36:20.853Z,61.73
2018-12-22T04:36:52.034Z,56.37
2018-12-22T04:37:23.149Z,57.23
2018-12-22T04:37:54.248Z,58.20
2018-12-22T04:38:25.363Z,54.03
2018-12-22T04:38:56.473Z,57.58
2018-12-22T04:39:27.612Z,53.15
2018-12-22T04:39:58.723Z,60.33
2018-12-22T04:40:29.843Z,52.95
2018-12-22T04:41:00.965Z,52.08
2018-12-22T04:41:32.081Z,53.75
2018-12-22T04:42:03.203Z,52.48
2018-12-22T04:42:34.316Z,50.98
2018-12-22T04:43:05.451Z,52.17
2018-12-22T04:43:36.617Z,52.23
2018-12-22T04:44:07.725Z,55.15
2018-12-22T04:44:38.861Z,56.13
2018-12-22T04:45:10.008Z,54.38
2018-12-22T04:45:41.782Z,53.95
2018-12-22T04:46:12.892Z,54.75
2018-12-22T04:46:44.009Z,56.23
2018-12-22T04:47:15.133Z,69.87
2018-12-22T04:47:46.243Z,60.75
2018-12-22T04:48:17.346Z,50.60
2018-12-22T04:48:48.492Z,51.92
2018-12-22T04:49:19.609Z,59.90
2018-12-22T04:49:50.823Z,64.03
2018-12-22T04:50:22.022Z,57.60
2018-12-22T04:50:53.206Z,61.75
2018-12-22T04:51:24.330Z,58.98
2018-12-22T04:51:55.444Z,60.28
2018-12-22T04:52:26.602Z,55.60
2018-12-22T04:52:57.709Z,67.08
2018-12-22T04:53:28.831Z,65.47
2018-12-22T04:54:00.063Z,52.08
2018-12-22T04:54:31.265Z,58.20
2018-12-22T04:55:02.418Z,59.45
2018-12-22T04:55:33.628Z,58.23
2018-12-22T04:56:04.768Z,57.83
2018-12-22T04:56:35.876Z,53.15
2018-12-22T04:57:06.996Z,51.08
2018-12-22T04:57:38.105Z,56.02
2018-12-22T04:58:09.209Z,53.05
2018-12-22T04:58:40.314Z,60.00
2018-12-22T04:59:11.416Z,64.95
2018-12-22T04:59:43.203Z,54.13
2018-12-22T05:00:14.670Z,55.50
2018-12-22T05:00:45.813Z,59.10
2018-12-22T05:01:16.926Z,49.90
2018-12-22T05:01:48.033Z,48.92
2018-12-22T05:02:19.171Z,50.35
2018-12-22T05:02:50.289Z,49.93
2018-12-22T05:03:21.419Z,50.28
2018-12-22T05:03:52.556Z,50.28
2018-12-22T05:04:23.659Z,49.42
2018-12-22T05:04:54.769Z,50.92
2018-12-22T05:05:25.872Z,50.98
2018-12-22T05:05:56.996Z,59.25
2018-12-22T05:06:28.115Z,53.05
2018-12-22T05:06:59.226Z,54.03
2018-12-22T05:07:30.384Z,55.35
2018-12-22T05:08:01.535Z,59.45
2018-12-22T05:08:32.658Z,50.55
2018-12-22T05:09:03.794Z,52.62
2018-12-22T05:09:35.007Z,52.25
2018-12-22T05:10:06.110Z,49.70
2018-12-22T05:10:37.345Z,48.50
2018-12-22T05:11:08.467Z,48.80
2018-12-22T05:11:39.641Z,51.53
2018-12-22T05:12:10.755Z,49.55
2018-12-22T05:12:41.902Z,52.40
2018-12-22T05:13:13.005Z,50.43
2018-12-22T05:13:44.117Z,48.68
2018-12-22T05:14:15.229Z,47.43
2018-12-22T05:14:46.328Z,47.75
2018-12-22T05:15:17.448Z,49.27
2018-12-22T05:15:48.553Z,50.80
2018-12-22T05:16:19.663Z,52.43
2018-12-22T05:16:50.772Z,49.93
2018-12-22T05:17:21.885Z,51.53
2018-12-22T05:17:53.030Z,52.25
2018-12-22T05:18:24.138Z,52.03
2018-12-22T05:18:55.240Z,54.20
2018-12-22T05:19:26.366Z,54.08
2018-12-22T05:19:57.464Z,48.42
2018-12-22T05:20:28.570Z,49.18
2018-12-22T05:20:59.696Z,50.30
2018-12-22T05:21:30.815Z,49.15
2018-12-22T05:22:01.936Z,50.95
2018-12-22T05:22:33.042Z,58.33
2018-12-22T05:23:04.207Z,57.53
2018-12-22T05:23:35.426Z,53.92
2018-12-22T05:24:06.541Z,54.75
2018-12-22T05:24:37.643Z,54.35
2018-12-22T05:25:08.746Z,57.15
2018-12-22T05:25:39.845Z,50.15
2018-12-22T05:26:10.981Z,52.73
2018-12-22T05:26:42.092Z,52.40
2018-12-22T05:27:13.210Z,60.05
2018-12-22T05:27:44.359Z,57.25
2018-12-22T05:28:15.469Z,52.30
2018-12-22T05:28:46.586Z,54.42
2018-12-22T05:29:17.744Z,51.92
2018-12-22T05:29:51.997Z,51.15
2018-12-22T05:30:21.993Z,50.40
2018-12-22T05:30:53.149Z,49.42
2018-12-22T05:31:24.334Z,51.15
2018-12-22T05:31:55.447Z,53.83
2018-12-22T05:32:26.545Z,51.92
2018-12-22T05:32:57.656Z,51.85
2018-12-22T05:33:28.774Z,51.40
2018-12-22T05:33:59.876Z,52.03
2018-12-22T05:34:31.021Z,54.58
2018-12-22T05:35:02.136Z,54.55
2018-12-22T05:35:33.253Z,51.23
2018-12-22T05:36:04.359Z,50.03
2018-12-22T05:36:35.470Z,52.15
2018-12-22T05:37:06.665Z,54.65
2018-12-22T05:37:37.776Z,49.98
2018-12-22T05:38:08.880Z,53.13
2018-12-22T05:38:40.085Z,53.33
2018-12-22T05:39:11.190Z,51.40
2018-12-22T05:39:42.312Z,52.17
2018-12-22T05:40:13.413Z,52.62
2018-12-22T05:40:44.529Z,50.20
2018-12-22T05:41:15.632Z,56.77
2018-12-22T05:41:46.731Z,59.45
2018-12-22T05:42:17.853Z,54.33
2018-12-22T05:42:49.017Z,55.15
2018-12-22T05:43:20.132Z,52.65
2018-12-22T05:43:51.276Z,53.35
2018-12-22T05:44:22.387Z,54.55
2018-12-22T05:44:53.531Z,53.80
2018-12-22T05:45:24.635Z,59.90
2018-12-22T05:45:55.748Z,57.38
2018-12-22T05:46:26.871Z,51.35
2018-12-22T05:46:57.975Z,61.13
2018-12-22T05:47:29.104Z,62.25
2018-12-22T05:48:00.215Z,55.60
2018-12-22T05:48:31.342Z,49.90
2018-12-22T05:49:02.504Z,51.13
2018-12-22T05:49:33.603Z,56.68
2018-12-22T05:50:04.728Z,58.78
2018-12-22T05:50:35.844Z,49.80
2018-12-22T05:51:07.021Z,57.48
2018-12-22T05:51:38.198Z,57.20
2018-12-22T05:52:09.307Z,54.40
2018-12-22T05:52:40.412Z,51.75
2018-12-22T05:53:11.516Z,52.00
2018-12-22T05:53:42.672Z,50.33
2018-12-22T05:54:13.781Z,50.52
2018-12-22T05:54:44.900Z,52.78
2018-12-22T05:55:16.006Z,52.05
2018-12-22T05:55:47.123Z,54.50
2018-12-22T05:56:18.237Z,50.03
2018-12-22T05:56:49.376Z,53.75
2018-12-22T05:57:20.494Z,53.68
2018-12-22T05:57:51.656Z,54.58
2018-12-22T05:58:22.769Z,51.00
2018-12-22T05:58:53.887Z,52.88
2018-12-22T05:59:25.007Z,51.92
2018-12-22T06:00:00.459Z,52.23
2018-12-22T06:00:29.314Z,51.50
2018-12-22T06:01:00.464Z,50.70
2018-12-22T06:01:31.568Z,45.98
2018-12-22T06:02:02.685Z,47.53
2018-12-22T06:02:33.794Z,50.38
2018-12-22T06:03:04.904Z,48.60
2018-12-22T06:03:36.009Z,50.50
2018-12-22T06:04:07.115Z,48.83
2018-12-22T06:04:38.231Z,50.45
2018-12-22T06:05:09.342Z,48.02
2018-12-22T06:05:40.482Z,44.55
2018-12-22T06:06:11.630Z,47.88
2018-12-22T06:06:42.759Z,46.88
2018-12-22T06:07:13.869Z,49.00
2018-12-22T06:07:44.989Z,48.42
2018-12-22T06:08:16.098Z,55.78
2018-12-22T06:08:47.201Z,51.15
2018-12-22T06:09:18.308Z,53.50
2018-12-22T06:09:49.412Z,55.03
2018-12-22T06:10:20.520Z,52.15
2018-12-22T06:10:51.638Z,57.08
2018-12-22T06:11:22.872Z,51.80
2018-12-22T06:11:53.988Z,54.10
2018-12-22T06:12:25.104Z,55.55
2018-12-22T06:12:56.211Z,53.33
2018-12-22T06:13:27.312Z,52.08
2018-12-22T06:13:58.533Z,51.00
2018-12-22T06:14:29.654Z,52.60
2018-12-22T06:15:00.767Z,50.98
2018-12-22T06:15:31.904Z,51.08
2018-12-22T06:16:03.004Z,50.63
2018-12-22T06:16:34.148Z,49.00
2018-12-22T06:17:05.261Z,52.38
2018-12-22T06:17:36.372Z,49.40
2018-12-22T06:18:07.486Z,50.38
2018-12-22T06:18:38.596Z,49.53
2018-12-22T06:19:09.750Z,48.73
2018-12-22T06:19:40.855Z,51.53
2018-12-22T06:20:11.964Z,48.28
2018-12-22T06:20:43.111Z,48.17
2018-12-22T06:21:14.215Z,49.15
2018-12-22T06:21:45.364Z,49.83
2018-12-22T06:22:16.521Z,50.08
2018-12-22T06:22:47.640Z,51.40
2018-12-22T06:23:18.765Z,50.65
2018-12-22T06:23:49.881Z,59.23
2018-12-22T06:24:20.989Z,57.83
2018-12-22T06:24:52.136Z,58.15
2018-12-22T06:25:23.257Z,52.90
2018-12-22T06:25:54.366Z,53.35
2018-12-22T06:26:25.472Z,53.80
2018-12-22T06:26:56.603Z,53.42
2018-12-22T06:27:27.755Z,52.08
2018-12-22T06:27:58.904Z,52.67
2018-12-22T06:28:30.011Z,55.80
2018-12-22T06:29:01.121Z,50.95
2018-12-22T06:29:32.220Z,53.92
2018-12-22T06:30:09.041Z,55.40
2018-12-22T06:30:36.487Z,52.15
2018-12-22T06:31:07.605Z,55.67
2018-12-22T06:31:38.710Z,60.10
2018-12-22T06:32:09.817Z,58.00
2018-12-22T06:32:40.966Z,54.53
2018-12-22T06:33:12.088Z,55.88
2018-12-22T06:33:43.196Z,58.05
2018-12-22T06:34:14.305Z,55.55
2018-12-22T06:34:45.404Z,57.60
2018-12-22T06:35:16.509Z,55.28
2018-12-22T06:35:47.612Z,58.50
2018-12-22T06:36:18.717Z,57.27
2018-12-22T06:36:49.850Z,53.58
2018-12-22T06:37:20.965Z,56.98
2018-12-22T06:37:52.111Z,56.92
2018-12-22T06:38:23.226Z,53.33
2018-12-22T06:38:54.326Z,49.18
2018-12-22T06:39:25.430Z,54.55
2018-12-22T06:39:56.546Z,54.60
2018-12-22T06:40:27.670Z,54.35
2018-12-22T06:40:58.785Z,57.80
2018-12-22T06:41:29.900Z,56.50
2018-12-22T06:42:01.049Z,54.70